createdAt,value
2022-12-01T00:01:06.023Z,94.60
2022-12-01T00:03:33.269Z,98.70
2022-12-01T00:06:05.901Z,95.85
2022-12-01T00:08:33.840Z,89.88
2022-12-01T00:11:08.685Z,91.72
2022-12-01T00:13:35.625Z,91.93
2022-12-01T00:16:15.377Z,88.20
2022-12-01T00:18:42.281Z,92.60
2022-12-01T00:21:16.038Z,93.75
2022-12-01T00:23:47.434Z,90.82
2022-12-01T00:26:15.030Z,90.38
2022-12-01T00:28:41.759Z,90.28
2022-12-01T00:31:12.147Z,93.63
2022-12-01T00:33:39.488Z,97.13
2022-12-01T00:36:07.375Z,96.43
2022-12-01T00:38:34.489Z,97.90
2022-12-01T00:41:00.955Z,103.20
2022-12-01T00:43:27.364Z,97.40
2022-12-01T00:45:53.867Z,98.15
2022-12-01T00:48:20.764Z,96.63
2022-12-01T00:50:47.506Z,95.68
2022-12-01T00:53:14.947Z,94.10
2022-12-01T00:55:41.314Z,98.90
2022-12-01T00:58:07.778Z,96.15
2022-12-01T01:00:34.665Z,98.93
2022-12-01T01:03:01.582Z,90.93
2022-12-01T01:05:27.939Z,88.35
2022-12-01T01:07:54.427Z,96.35
2022-12-01T01:10:20.898Z,98.93
2022-12-01T01:12:47.272Z,93.43
2022-12-01T01:15:13.679Z,90.40
2022-12-01T01:17:40.072Z,101.18
2022-12-01T01:20:07.153Z,95.13
2022-12-01T01:22:35.123Z,98.80
2022-12-01T01:25:01.668Z,96.30
2022-12-01T01:27:28.196Z,96.55
2022-12-01T01:29:54.527Z,98.75
2022-12-01T01:32:20.958Z,104.28
2022-12-01T01:34:47.343Z,98.43
2022-12-01T01:37:13.740Z,97.32
2022-12-01T01:39:40.814Z,102.60
2022-12-01T01:42:12.490Z,95.95
2022-12-01T01:44:50.044Z,98.28
2022-12-01T01:47:22.089Z,100.80
2022-12-01T01:49:48.984Z,108.00
2022-12-01T01:52:16.281Z,98.53
2022-12-01T01:54:47.048Z,98.15
2022-12-01T01:57:20.631Z,103.22
2022-12-01T01:59:52.512Z,99.75
2022-12-01T02:02:18.982Z,96.65
2022-12-01T02:04:48.652Z,97.30
2022-12-01T02:07:18.663Z,105.78
2022-12-01T02:09:45.316Z,101.00
2022-12-01T02:12:36.089Z,101.85
2022-12-01T02:15:37.332Z,104.25
2022-12-01T02:18:26.506Z,97.15
2022-12-01T02:21:27.770Z,107.70
2022-12-01T02:24:26.406Z,109.97
2022-12-01T02:27:05.049Z,99.35
2022-12-01T02:29:41.641Z,105.20
2022-12-01T02:32:29.903Z,108.88
2022-12-01T02:35:14.584Z,104.20
2022-12-01T02:38:05.871Z,97.72
2022-12-01T02:40:41.370Z,105.40
2022-12-01T02:43:17.677Z,102.88
2022-12-01T02:45:53.631Z,109.45
2022-12-01T02:48:27.327Z,107.03
2022-12-01T02:50:57.983Z,99.68
2022-12-01T02:53:24.702Z,100.72
2022-12-01T02:55:57.702Z,110.68
2022-12-01T02:58:24.333Z,108.68
2022-12-01T03:01:20.128Z,109.20
2022-12-01T03:04:22.232Z,110.53
2022-12-01T03:07:10.695Z,110.43
2022-12-01T03:09:44.610Z,109.38
2022-12-01T03:12:23.537Z,112.65
2022-12-01T03:15:03.412Z,109.13
2022-12-01T03:17:43.279Z,105.72
2022-12-01T03:20:23.539Z,111.30
2022-12-01T03:22:55.503Z,117.38
2022-12-01T03:25:26.175Z,105.93
2022-12-01T03:28:20.327Z,113.80
2022-12-01T03:30:45.213Z,114.38
2022-12-01T03:33:19.122Z,108.85
2022-12-01T03:35:53.941Z,116.22
2022-12-01T03:38:28.871Z,112.93
2022-12-01T03:41:00.834Z,114.45
2022-12-01T03:43:33.369Z,117.80
2022-12-01T03:46:09.172Z,110.88
2022-12-01T03:48:36.892Z,115.30
2022-12-01T03:51:14.030Z,117.18
2022-12-01T03:54:09.579Z,111.22
2022-12-01T03:57:00.197Z,113.60
2022-12-01T03:59:29.397Z,119.93
2022-12-01T04:01:57.353Z,117.78
2022-12-01T04:04:24.503Z,117.47
2022-12-01T04:06:51.347Z,112.68
2022-12-01T04:09:17.928Z,118.68
2022-12-01T04:12:03.173Z,118.72
2022-12-01T04:14:30.140Z,119.45
2022-12-01T04:16:56.507Z,111.72
2022-12-01T04:19:23.886Z,113.63
2022-12-01T04:21:50.241Z,117.28
2022-12-01T04:24:16.751Z,116.13
2022-12-01T04:26:43.407Z,119.10
2022-12-01T04:29:10.853Z,123.32
2022-12-01T04:31:37.672Z,120.22
2022-12-01T04:34:04.603Z,112.93
2022-12-01T04:36:32.638Z,124.72
2022-12-01T04:38:59.208Z,114.70
2022-12-01T04:41:25.595Z,115.10
2022-12-01T04:43:55.807Z,116.53
2022-12-01T04:46:23.163Z,117.53
2022-12-01T04:48:49.591Z,113.57
2022-12-01T04:51:16.057Z,117.50
2022-12-01T04:53:42.496Z,117.72
2022-12-01T04:56:09.214Z,117.38
2022-12-01T04:58:37.611Z,113.75
2022-12-01T05:01:06.388Z,117.55
2022-12-01T05:03:36.614Z,114.97
2022-12-01T05:06:08.239Z,110.43
2022-12-01T05:08:35.859Z,110.40
2022-12-01T05:11:02.792Z,117.78
2022-12-01T05:13:29.305Z,118.72
2022-12-01T05:16:06.240Z,115.38
2022-12-01T05:18:32.914Z,116.55
2022-12-01T05:20:59.455Z,118.15
2022-12-01T05:23:27.630Z,125.63
2022-12-01T05:25:54.731Z,118.20
2022-12-01T05:28:23.390Z,116.93
2022-12-01T05:30:50.507Z,122.70
2022-12-01T05:33:17.350Z,120.97
2022-12-01T05:35:44.236Z,108.90
2022-12-01T05:38:11.064Z,117.22
2022-12-01T05:40:37.484Z,110.13
2022-12-01T05:43:04.503Z,111.07
2022-12-01T05:45:31.580Z,112.97
2022-12-01T05:47:59.760Z,113.30
2022-12-01T05:50:27.521Z,115.65
2022-12-01T05:52:55.288Z,108.70
2022-12-01T05:55:22.798Z,109.07
2022-12-01T05:57:49.270Z,113.95
2022-12-01T06:00:16.305Z,111.68
2022-12-01T06:02:42.875Z,114.53
2022-12-01T06:05:09.534Z,110.93
2022-12-01T06:07:35.936Z,107.45
2022-12-01T06:10:03.288Z,113.95
2022-12-01T06:12:29.634Z,114.40
2022-12-01T06:14:56.057Z,108.60
2022-12-01T06:17:22.410Z,114.68
2022-12-01T06:19:49.108Z,109.35
2022-12-01T06:22:15.686Z,124.18
2022-12-01T06:24:42.151Z,122.50
2022-12-01T06:27:08.549Z,115.22
2022-12-01T06:29:40.582Z,123.13
2022-12-01T06:32:09.478Z,119.47
2022-12-01T06:34:35.861Z,115.53
2022-12-01T06:37:02.243Z,122.18
2022-12-01T06:39:28.695Z,114.00
2022-12-01T06:41:55.134Z,116.53
2022-12-01T06:44:21.479Z,119.47
2022-12-01T06:46:52.699Z,109.82
2022-12-01T06:49:19.705Z,116.55
2022-12-01T06:51:46.375Z,118.03
2022-12-01T06:54:12.827Z,116.43
2022-12-01T06:56:39.500Z,112.15
2022-12-01T06:59:06.195Z,116.80
2022-12-01T07:01:33.072Z,116.35
2022-12-01T07:03:59.567Z,125.20
2022-12-01T07:06:26.127Z,118.82
2022-12-01T07:08:53.074Z,123.13
2022-12-01T07:11:19.485Z,120.97
2022-12-01T07:13:46.007Z,117.93
2022-12-01T07:16:12.928Z,121.53
2022-12-01T07:18:40.383Z,115.80
2022-12-01T07:21:10.116Z,118.55
2022-12-01T07:23:36.578Z,117.60
2022-12-01T07:26:11.113Z,118.47
2022-12-01T07:28:37.645Z,111.68
2022-12-01T07:31:06.182Z,113.70
2022-12-01T07:33:32.755Z,118.25
2022-12-01T07:35:59.131Z,115.60
2022-12-01T07:38:27.680Z,109.32
2022-12-01T07:40:54.111Z,115.00
2022-12-01T07:43:20.487Z,108.18
2022-12-01T07:45:47.172Z,114.22
2022-12-01T07:48:13.648Z,109.22
2022-12-01T07:50:40.057Z,109.40
2022-12-01T07:53:06.730Z,108.03
2022-12-01T07:55:33.251Z,108.63
2022-12-01T07:58:00.688Z,105.75
2022-12-01T08:00:27.232Z,106.72
2022-12-01T08:02:53.597Z,107.75
2022-12-01T08:05:20.003Z,110.75
2022-12-01T08:07:46.431Z,108.10
2022-12-01T08:10:12.838Z,111.10
2022-12-01T08:12:39.200Z,103.50
2022-12-01T08:15:06.021Z,103.03
2022-12-01T08:17:32.446Z,106.97
2022-12-01T08:19:58.792Z,103.65
2022-12-01T08:22:25.217Z,105.53
2022-12-01T08:24:51.545Z,99.97
2022-12-01T08:27:17.982Z,97.10
2022-12-01T08:29:44.419Z,96.85
2022-12-01T08:32:10.838Z,97.63
2022-12-01T08:34:38.554Z,104.18
2022-12-01T08:37:04.947Z,101.50
2022-12-01T08:39:31.378Z,109.15
2022-12-01T08:41:57.814Z,103.93
2022-12-01T08:44:24.257Z,104.97
2022-12-01T08:46:50.718Z,101.38
2022-12-01T08:49:17.323Z,98.70
2022-12-01T08:51:43.748Z,96.05
2022-12-01T08:54:12.161Z,89.95
2022-12-01T08:56:42.174Z,99.25
2022-12-01T08:59:09.008Z,90.32
2022-12-01T09:01:51.551Z,95.95
2022-12-01T09:04:19.889Z,102.60
2022-12-01T09:06:48.192Z,92.65
2022-12-01T09:09:20.937Z,102.00
2022-12-01T09:11:47.878Z,97.68
2022-12-01T09:14:16.535Z,98.45
2022-12-01T09:16:44.854Z,96.35
2022-12-01T09:19:13.183Z,93.38
2022-12-01T09:21:42.634Z,95.85
2022-12-01T09:24:13.807Z,99.97
2022-12-01T09:26:40.872Z,89.30
2022-12-01T09:29:10.302Z,100.13
2022-12-01T09:31:37.871Z,93.32
2022-12-01T09:34:07.090Z,90.88
2022-12-01T09:36:35.200Z,89.65
2022-12-01T09:39:02.205Z,94.47
2022-12-01T09:41:35.485Z,94.15
2022-12-01T09:44:15.161Z,99.60
2022-12-01T09:46:49.782Z,93.20
2022-12-01T09:49:23.786Z,98.75
2022-12-01T09:51:52.466Z,94.38
2022-12-01T09:54:18.929Z,88.65
2022-12-01T09:56:50.201Z,92.00
2022-12-01T09:59:20.692Z,104.93
2022-12-01T10:01:50.895Z,94.38
2022-12-01T10:04:22.766Z,99.03
2022-12-01T10:06:57.902Z,104.32
2022-12-01T10:09:48.600Z,104.68
2022-12-01T10:12:18.117Z,104.30
2022-12-01T10:14:46.392Z,88.47
2022-12-01T10:17:28.255Z,90.72
2022-12-01T10:20:03.388Z,107.60
2022-12-01T10:22:49.245Z,91.95
2022-12-01T10:25:24.772Z,97.45
2022-12-01T10:28:12.463Z,95.35
2022-12-01T10:30:49.759Z,90.30
2022-12-01T10:33:24.810Z,80.80
2022-12-01T10:35:51.715Z,83.18
2022-12-01T10:38:27.822Z,78.30
2022-12-01T10:40:58.443Z,72.43
2022-12-01T10:43:37.523Z,73.75
2022-12-01T10:46:19.714Z,73.03
2022-12-01T10:48:57.762Z,69.68
2022-12-01T10:51:25.716Z,66.30
2022-12-01T10:54:07.074Z,66.85
2022-12-01T10:56:33.969Z,60.95
2022-12-01T10:59:16.923Z,66.70
2022-12-01T11:01:48.170Z,61.05
2022-12-01T11:04:29.557Z,64.35
2022-12-01T11:06:56.890Z,61.00
2022-12-01T11:09:28.966Z,65.90
2022-12-01T11:12:01.040Z,68.72
2022-12-01T11:14:46.507Z,76.75
2022-12-01T11:17:22.368Z,71.90
2022-12-01T11:19:49.272Z,75.35
2022-12-01T11:22:25.371Z,76.80
2022-12-01T11:24:59.693Z,79.85
2022-12-01T11:27:30.471Z,86.45
2022-12-01T11:30:04.954Z,80.80
2022-12-01T11:32:35.366Z,90.18
2022-12-01T11:35:14.212Z,81.97
2022-12-01T11:38:13.310Z,74.88
2022-12-01T11:40:45.838Z,78.65
2022-12-01T11:43:23.377Z,75.60
2022-12-01T11:45:50.207Z,77.38
2022-12-01T11:48:29.710Z,85.55
2022-12-01T11:51:20.244Z,72.78
2022-12-01T11:54:23.496Z,74.88
2022-12-01T11:57:17.363Z,67.25
2022-12-01T11:59:38.305Z,69.25
2022-12-01T12:02:20.932Z,66.28
2022-12-01T12:05:18.208Z,63.03
2022-12-01T12:08:05.614Z,60.63
2022-12-01T12:10:44.001Z,62.50
2022-12-01T12:13:25.195Z,70.95
2022-12-01T12:16:19.799Z,64.72
2022-12-01T12:19:28.968Z,70.22
2022-12-01T12:22:11.956Z,72.00
2022-12-01T12:24:48.793Z,72.28
2022-12-01T12:27:29.278Z,68.93
2022-12-01T12:30:26.132Z,69.18
2022-12-01T12:33:33.319Z,71.10
2022-12-01T12:36:38.633Z,75.00
2022-12-01T12:39:36.735Z,73.78
2022-12-01T12:42:14.721Z,70.57
2022-12-01T12:44:51.573Z,76.07
2022-12-01T12:47:50.992Z,72.03
2022-12-01T12:50:31.946Z,75.38
2022-12-01T12:53:04.562Z,72.00
2022-12-01T12:55:39.744Z,77.22
2022-12-01T12:58:26.910Z,79.45
2022-12-01T13:01:03.424Z,70.43
2022-12-01T13:03:49.031Z,65.90
2022-12-01T13:06:25.795Z,64.18
2022-12-01T13:08:59.153Z,73.30
2022-12-01T13:11:40.093Z,75.07
2022-12-01T13:14:15.629Z,77.88
2022-12-01T13:16:46.392Z,67.28
2022-12-01T13:19:16.589Z,67.68
2022-12-01T13:21:46.842Z,66.85
2022-12-01T13:24:23.388Z,58.05
2022-12-01T13:26:55.978Z,60.47
2022-12-01T13:29:25.486Z,66.80
2022-12-01T13:31:53.722Z,65.32
2022-12-01T13:34:39.707Z,65.18
2022-12-01T13:37:08.918Z,53.20
2022-12-01T13:39:40.853Z,55.17
2022-12-01T13:42:35.064Z,55.78
2022-12-01T13:45:10.426Z,54.67
2022-12-01T13:47:51.381Z,56.30
2022-12-01T13:50:36.159Z,53.80
2022-12-01T13:53:17.783Z,59.08
2022-12-01T13:56:16.459Z,58.58
2022-12-01T13:58:53.183Z,50.08
2022-12-01T14:01:19.860Z,59.20
2022-12-01T14:04:11.222Z,54.20
2022-12-01T14:06:49.266Z,56.15
2022-12-01T14:09:33.236Z,61.65
2022-12-01T14:12:06.341Z,50.03
2022-12-01T14:14:36.961Z,55.03
2022-12-01T14:17:04.517Z,48.20
2022-12-01T14:19:39.371Z,55.17
2022-12-01T14:22:07.610Z,47.45
2022-12-01T14:24:43.482Z,53.80
2022-12-01T14:27:11.883Z,55.13
2022-12-01T14:29:42.957Z,52.45
2022-12-01T14:32:09.366Z,51.90
2022-12-01T14:34:39.452Z,49.20
2022-12-01T14:37:20.833Z,48.50
2022-12-01T14:39:58.086Z,49.03
2022-12-01T14:42:51.897Z,54.00
2022-12-01T14:45:34.134Z,52.88
2022-12-01T14:48:04.260Z,54.17
2022-12-01T14:51:10.587Z,48.92
2022-12-01T14:53:41.865Z,55.50
2022-12-01T14:56:16.166Z,51.17
2022-12-01T14:59:00.537Z,44.63
2022-12-01T15:01:33.908Z,50.65
2022-12-01T15:04:03.201Z,52.13
2022-12-01T15:06:31.991Z,71.53
2022-12-01T15:12:07.514Z,58.80
2022-12-01T15:14:47.079Z,53.30
2022-12-01T15:17:31.083Z,48.95
2022-12-01T15:19:58.598Z,50.58
2022-12-01T15:22:30.532Z,51.75
2022-12-01T15:25:15.141Z,52.50
2022-12-01T15:27:43.158Z,51.28
2022-12-01T15:30:14.456Z,51.05
2022-12-01T15:32:45.607Z,49.90
2022-12-01T15:35:20.549Z,50.33
2022-12-01T15:37:47.484Z,46.60
2022-12-01T15:43:14.330Z,50.28
2022-12-01T15:46:09.841Z,41.42
2022-12-01T15:48:37.190Z,43.85
2022-12-01T15:51:09.895Z,47.30
2022-12-01T15:53:39.870Z,40.65
2022-12-01T15:56:09.016Z,48.03
2022-12-01T15:58:42.067Z,52.10
2022-12-01T16:01:12.970Z,54.25
2022-12-01T16:03:52.414Z,46.80
2022-12-01T16:06:20.928Z,52.42
2022-12-01T16:09:18.816Z,46.17
2022-12-01T16:12:18.703Z,51.83
2022-12-01T16:14:54.489Z,59.55
2022-12-01T16:17:22.158Z,55.28
2022-12-01T16:19:48.595Z,57.38
2022-12-01T16:22:20.110Z,63.95
2022-12-01T16:24:51.362Z,63.10
2022-12-01T16:27:25.151Z,67.30
2022-12-01T16:29:59.012Z,75.00
2022-12-01T16:32:25.403Z,96.95
2022-12-01T16:34:52.838Z,100.20
2022-12-01T16:37:21.437Z,83.30
2022-12-01T16:39:48.234Z,81.20
2022-12-01T16:42:16.691Z,77.70
2022-12-01T16:44:44.552Z,77.60
2022-12-01T16:47:25.244Z,99.88
2022-12-01T16:49:52.392Z,90.57
2022-12-01T16:55:18.962Z,85.18
2022-12-01T16:57:45.396Z,81.88
2022-12-01T17:00:12.268Z,87.78
2022-12-01T17:02:38.700Z,110.10
2022-12-01T17:05:05.302Z,98.05
2022-12-01T17:07:31.843Z,95.70
2022-12-01T17:09:58.317Z,96.60
2022-12-01T17:12:26.636Z,92.30
2022-12-01T17:14:53.037Z,91.28
2022-12-01T17:17:19.396Z,122.03
2022-12-01T17:19:45.860Z,90.43
2022-12-01T17:22:12.278Z,94.15
2022-12-01T17:24:39.015Z,92.85
2022-12-01T17:27:05.483Z,98.22
2022-12-01T17:29:31.871Z,94.93
2022-12-01T17:31:58.297Z,92.28
2022-12-01T17:34:24.763Z,91.18
2022-12-01T17:36:52.532Z,86.38
2022-12-01T17:39:19.382Z,80.25
2022-12-01T17:41:45.826Z,87.68
2022-12-01T17:44:12.348Z,77.32
2022-12-01T17:46:38.841Z,84.80
2022-12-01T17:49:09.307Z,75.13
2022-12-01T17:51:36.624Z,80.68
2022-12-01T17:54:03.275Z,86.45
2022-12-01T17:56:29.767Z,80.40
2022-12-01T17:58:56.356Z,79.60
2022-12-01T18:01:28.453Z,80.57
2022-12-01T18:03:58.174Z,65.90
2022-12-01T18:06:25.634Z,84.32
2022-12-01T18:08:53.095Z,82.22
2022-12-01T18:11:20.347Z,70.57
2022-12-01T18:13:48.733Z,74.15
2022-12-01T18:16:24.970Z,81.18
2022-12-01T18:18:52.207Z,74.80
2022-12-01T18:21:21.086Z,75.35
2022-12-01T18:23:58.301Z,72.13
2022-12-01T18:26:26.461Z,74.13
2022-12-01T18:28:54.702Z,75.93
2022-12-01T18:31:21.237Z,62.25
2022-12-01T18:33:47.712Z,70.38
2022-12-01T18:36:20.493Z,66.13
2022-12-01T18:38:47.574Z,57.60
2022-12-01T18:41:14.631Z,67.03
2022-12-01T18:43:41.303Z,67.75
2022-12-01T18:46:08.849Z,60.17
2022-12-01T18:48:35.473Z,64.13
2022-12-01T18:51:04.546Z,63.00
2022-12-01T18:53:31.467Z,64.03
2022-12-01T18:56:02.594Z,66.00
2022-12-01T18:58:29.668Z,58.83
2022-12-01T19:00:56.135Z,55.13
2022-12-01T19:03:22.631Z,58.70
2022-12-01T19:05:49.214Z,66.60
2022-12-01T19:08:15.618Z,64.30
2022-12-01T19:10:42.159Z,67.40
2022-12-01T19:13:08.569Z,66.18
2022-12-01T19:15:36.954Z,59.13
2022-12-01T19:18:03.448Z,67.18
2022-12-01T19:20:29.923Z,72.10
2022-12-01T19:22:56.349Z,71.07
2022-12-01T19:25:22.704Z,64.88
2022-12-01T19:27:51.064Z,63.50
2022-12-01T19:30:17.599Z,65.88
2022-12-01T19:32:44.282Z,66.85
2022-12-01T19:35:11.059Z,60.22
2022-12-01T19:37:37.439Z,63.75
2022-12-01T19:40:05.339Z,56.90
2022-12-01T19:42:32.097Z,62.40
2022-12-01T19:44:59.454Z,60.67
2022-12-01T19:47:25.795Z,63.40
2022-12-01T19:49:52.507Z,64.30
2022-12-01T19:52:18.839Z,67.53
2022-12-01T19:54:49.692Z,64.32
2022-12-01T19:57:16.286Z,71.40
2022-12-01T19:59:42.633Z,72.10
2022-12-01T20:02:10.530Z,64.13
2022-12-01T20:04:38.763Z,67.57
2022-12-01T20:07:05.723Z,66.63
2022-12-01T20:09:32.241Z,69.68
2022-12-01T20:11:58.602Z,72.22
2022-12-01T20:14:25.082Z,67.13
2022-12-01T20:16:54.648Z,67.50
2022-12-01T20:19:21.234Z,77.85
2022-12-01T20:21:48.496Z,84.95
2022-12-01T20:24:18.524Z,78.55
2022-12-01T20:26:48.127Z,77.35
2022-12-01T20:29:17.612Z,82.40
2022-12-01T20:31:44.822Z,75.78
2022-12-01T20:34:18.178Z,89.80
2022-12-01T20:36:44.806Z,85.15
2022-12-01T20:39:11.743Z,90.75
2022-12-01T20:41:39.706Z,86.30
2022-12-01T20:44:07.678Z,90.65
2022-12-01T20:46:35.759Z,84.53
2022-12-01T20:49:02.195Z,74.13
2022-12-01T20:51:28.537Z,72.13
2022-12-01T20:54:26.206Z,70.97
2022-12-01T20:56:41.346Z,69.10
2022-12-01T20:59:07.891Z,76.25
2022-12-01T21:01:34.460Z,71.18
2022-12-01T21:04:00.959Z,69.40
2022-12-01T21:06:29.029Z,73.93
2022-12-01T21:08:55.589Z,72.85
2022-12-01T21:11:47.424Z,73.80
2022-12-01T21:14:25.852Z,65.60
2022-12-01T21:16:56.586Z,68.85
2022-12-01T21:19:30.424Z,63.20
2022-12-01T21:21:58.212Z,71.47
2022-12-01T21:24:33.523Z,69.82
2022-12-01T21:27:12.593Z,75.03
2022-12-01T21:29:49.436Z,69.43
2022-12-01T21:32:20.863Z,71.15
2022-12-01T21:34:48.055Z,73.53
2022-12-01T21:37:21.783Z,81.15
2022-12-01T21:39:52.753Z,76.45
2022-12-01T21:42:22.018Z,72.32
2022-12-01T21:44:49.259Z,73.00
2022-12-01T21:47:20.629Z,72.80
2022-12-01T21:49:50.529Z,80.38
2022-12-01T21:52:20.088Z,77.72
2022-12-01T21:54:47.044Z,71.03
2022-12-01T21:57:39.784Z,73.88
2022-12-01T22:00:35.620Z,74.90
2022-12-01T22:03:08.003Z,70.47
2022-12-01T22:05:40.317Z,64.97
2022-12-01T22:08:32.346Z,63.05
2022-12-01T22:11:20.828Z,60.33
2022-12-01T22:13:50.419Z,64.25
2022-12-01T22:16:21.122Z,66.20
2022-12-01T22:18:51.712Z,66.30
2022-12-01T22:21:23.930Z,69.22
2022-12-01T22:24:01.010Z,66.18
2022-12-01T22:26:27.824Z,70.55
2022-12-01T22:28:57.886Z,75.32
2022-12-01T22:31:24.363Z,68.97
2022-12-01T22:34:00.127Z,76.50
2022-12-01T22:36:31.363Z,74.43
2022-12-01T22:38:58.057Z,75.47
2022-12-01T22:41:24.731Z,80.00
2022-12-01T22:43:55.926Z,75.30
2022-12-01T22:46:26.854Z,72.78
2022-12-01T22:49:19.389Z,80.72
2022-12-01T22:52:02.127Z,77.30
2022-12-01T22:54:34.609Z,72.95
2022-12-01T22:57:05.148Z,69.97
2022-12-01T22:59:35.460Z,68.30
2022-12-01T23:02:14.401Z,75.35
2022-12-01T23:04:45.114Z,68.97
2022-12-01T23:07:26.488Z,61.95
2022-12-01T23:09:53.115Z,64.40
2022-12-01T23:12:30.697Z,61.97
2022-12-01T23:15:00.769Z,61.10
2022-12-01T23:17:29.626Z,63.05
2022-12-01T23:20:32.136Z,62.35
2022-12-01T23:23:05.014Z,66.07
2022-12-01T23:25:31.872Z,62.40
2022-12-01T23:28:02.743Z,60.72
2022-12-01T23:30:29.356Z,67.47
2022-12-01T23:33:03.894Z,67.28
2022-12-01T23:35:39.011Z,61.72
2022-12-01T23:38:05.501Z,61.85
2022-12-01T23:40:36.109Z,71.80
2022-12-01T23:43:26.763Z,69.43
2022-12-01T23:46:06.610Z,73.55
2022-12-01T23:48:41.558Z,80.32
2022-12-01T23:51:25.354Z,78.93
2022-12-01T23:53:53.735Z,83.10
2022-12-01T23:56:22.977Z,80.18
2022-12-01T23:58:50.477Z,87.13
